createdAt,value
2018-04-24T00:00:52.448Z,101237.09
2018-04-24T00:03:20.868Z,101232.17
2018-04-24T00:05:50.185Z,101235.48
2018-04-24T00:08:18.581Z,101230.84
2018-04-24T00:10:47.019Z,101233.37
2018-04-24T00:13:15.441Z,101235.99
2018-04-24T00:15:43.810Z,101233.26
2018-04-24T00:18:12.234Z,101234.32
2018-04-24T00:20:41.377Z,101237.47
2018-04-24T00:23:10.522Z,101241.38
2018-04-24T00:25:38.975Z,101235.85
2018-04-24T00:28:07.365Z,101237.95
2018-04-24T00:30:35.737Z,101241.86
2018-04-24T00:33:04.881Z,101245.45
2018-04-24T00:35:33.301Z,101244.89
2018-04-24T00:38:01.686Z,101236.52
2018-04-24T00:40:30.077Z,101232.38
2018-04-24T00:42:59.226Z,101238.83
2018-04-24T00:45:27.721Z,101233.03
2018-04-24T00:47:56.102Z,101231.75
2018-04-24T00:50:24.503Z,101224.73
2018-04-24T00:52:52.880Z,101229.64
2018-04-24T00:55:21.284Z,101218.36
2018-04-24T00:57:49.683Z,101216.41
2018-04-24T01:00:18.819Z,101212.86
2018-04-24T01:02:47.219Z,101204.21
2018-04-24T01:05:15.602Z,101200.09
2018-04-24T01:07:43.981Z,101199.05
2018-04-24T01:10:12.366Z,101205.11
2018-04-24T01:12:40.750Z,101206.99
2018-04-24T01:15:09.121Z,101209.35
2018-04-24T01:17:37.503Z,101203.02
2018-04-24T01:20:05.915Z,101200.87
2018-04-24T01:22:34.298Z,101206.92
2018-04-24T01:25:02.681Z,101218.67
2018-04-24T01:27:31.845Z,101216.41
2018-04-24T01:30:00.247Z,101213.50
2018-04-24T01:32:28.655Z,101217.38
2018-04-24T01:34:57.034Z,101215.69
2018-04-24T01:37:25.433Z,101225.05
2018-04-24T01:39:53.843Z,101233.44
2018-04-24T01:42:22.981Z,101232.97
2018-04-24T01:44:51.370Z,101234.88
2018-04-24T01:47:19.752Z,101234.75
2018-04-24T01:49:48.227Z,101237.08
2018-04-24T01:52:16.622Z,101238.73
2018-04-24T01:54:44.996Z,101229.56
2018-04-24T01:57:13.372Z,101227.91
2018-04-24T01:59:41.766Z,101224.22
2018-04-24T02:02:10.162Z,101225.36
2018-04-24T02:04:38.523Z,101225.91
2018-04-24T02:07:06.921Z,101224.83
2018-04-24T02:09:36.203Z,101221.92
2018-04-24T02:12:04.608Z,101212.39
2018-04-24T02:14:32.967Z,101211.02
2018-04-24T02:17:01.362Z,101209.80
2018-04-24T02:19:29.805Z,101206.13
2018-04-24T02:21:58.958Z,101198.39
2018-04-24T02:24:27.346Z,101201.72
2018-04-24T02:26:55.741Z,101193.64
2018-04-24T02:29:24.217Z,101195.22
2018-04-24T02:31:52.586Z,101194.23
2018-04-24T02:34:21.006Z,101196.16
2018-04-24T02:36:49.484Z,101195.66
2018-04-24T02:39:18.551Z,101206.79
2018-04-24T02:41:46.934Z,101202.02
2018-04-24T02:44:15.318Z,101194.82
2018-04-24T02:46:43.768Z,101204.03
2018-04-24T02:49:12.194Z,101202.45
2018-04-24T02:51:40.565Z,101197.19
2018-04-24T02:54:08.947Z,101203.82
2018-04-24T02:56:37.318Z,101205.98
2018-04-24T02:59:05.708Z,101185.24
2018-04-24T03:01:34.051Z,101182.84
2018-04-24T03:04:03.189Z,101178.84
2018-04-24T03:06:31.672Z,101173.58
2018-04-24T03:09:00.066Z,101166.38
2018-04-24T03:11:28.397Z,101180.06
2018-04-24T03:13:57.535Z,101178.85
2018-04-24T03:16:25.913Z,101181.00
2018-04-24T03:18:54.282Z,101183.34
2018-04-24T03:21:22.646Z,101181.82
2018-04-24T03:23:51.784Z,101185.00
2018-04-24T03:26:20.187Z,101187.05
2018-04-24T03:28:48.569Z,101190.25
2018-04-24T03:31:17.003Z,101192.86
2018-04-24T03:33:46.236Z,101187.86
2018-04-24T03:36:15.402Z,101183.03
2018-04-24T03:38:44.536Z,101180.60
2018-04-24T03:41:12.940Z,101172.55
2018-04-24T03:43:41.313Z,101161.59
2018-04-24T03:46:09.686Z,101162.84
2018-04-24T03:48:38.059Z,101172.08
2018-04-24T03:51:06.424Z,101173.75
2018-04-24T03:53:35.569Z,101165.77
2018-04-24T03:56:03.935Z,101169.13
2018-04-24T03:58:32.316Z,101175.67
2018-04-24T04:01:00.794Z,101176.48
2018-04-24T04:03:29.290Z,101173.91
2018-04-24T04:05:57.707Z,101172.70
2018-04-24T04:08:26.117Z,101162.33
2018-04-24T04:10:55.251Z,101165.95
2018-04-24T04:13:23.637Z,101166.75
2018-04-24T04:15:52.015Z,101162.42
2018-04-24T04:18:37.918Z,101163.10
2018-04-24T04:21:24.678Z,101165.44
2018-04-24T04:24:10.939Z,101159.37
2018-04-24T04:26:39.299Z,101165.72
2018-04-24T04:29:07.694Z,101170.56
2018-04-24T04:31:36.081Z,101165.25
2018-04-24T04:34:04.449Z,101159.29
2018-04-24T04:36:32.812Z,101156.36
2018-04-24T04:39:02.134Z,101157.14
2018-04-24T04:41:30.569Z,101151.01
2018-04-24T04:43:59.702Z,101156.30
2018-04-24T04:46:28.101Z,101161.65
2018-04-24T04:48:56.489Z,101159.79
2018-04-24T04:51:24.883Z,101159.08
2018-04-24T04:53:53.257Z,101155.42
2018-04-24T04:56:21.674Z,101156.38
2018-04-24T04:58:50.839Z,101162.21
2018-04-24T05:01:19.273Z,101165.05
2018-04-24T05:03:48.426Z,101169.18
2018-04-24T05:06:17.564Z,101169.22
2018-04-24T05:08:46.721Z,101176.36
2018-04-24T05:11:15.150Z,101184.39
2018-04-24T05:13:43.592Z,101195.44
2018-04-24T05:16:11.982Z,101195.32
2018-04-24T05:18:40.374Z,101199.64
2018-04-24T05:21:08.780Z,101204.03
2018-04-24T05:23:37.938Z,101205.63
2018-04-24T05:26:07.083Z,101214.16
2018-04-24T05:28:36.241Z,101210.17
2018-04-24T05:31:04.621Z,101214.44
2018-04-24T05:33:33.029Z,101213.67
2018-04-24T05:36:01.462Z,101213.75
2018-04-24T05:38:30.761Z,101214.62
2018-04-24T05:40:59.168Z,101211.52
2018-04-24T05:43:27.569Z,101217.45
2018-04-24T05:45:55.950Z,101221.97
2018-04-24T05:48:24.361Z,101221.19
2018-04-24T05:50:53.560Z,101224.00
2018-04-24T05:53:22.710Z,101221.19
2018-04-24T05:55:51.145Z,101233.52
2018-04-24T05:58:19.544Z,101224.72
2018-04-24T06:00:48.768Z,101231.16
2018-04-24T06:03:17.284Z,101230.23
2018-04-24T06:05:45.744Z,101232.34
2018-04-24T06:08:14.197Z,101222.74
2018-04-24T06:10:42.550Z,101223.47
2018-04-24T06:13:10.953Z,101220.37
2018-04-24T06:15:39.341Z,101215.72
2018-04-24T06:18:08.528Z,101213.20
2018-04-24T06:20:36.938Z,101210.42
2018-04-24T06:23:06.107Z,101213.81
2018-04-24T06:25:34.501Z,101212.71
2018-04-24T06:28:02.873Z,101212.11
2018-04-24T06:30:31.258Z,101216.58
2018-04-24T06:32:59.709Z,101213.68
2018-04-24T06:35:28.106Z,101217.61
2018-04-24T06:37:56.563Z,101215.98
2018-04-24T06:40:24.942Z,101217.23
2018-04-24T06:42:53.337Z,101215.97
2018-04-24T06:45:22.484Z,101214.89
2018-04-24T06:47:50.942Z,101217.91
2018-04-24T06:50:19.302Z,101214.62
2018-04-24T06:52:47.682Z,101207.80
2018-04-24T06:55:16.103Z,101206.94
2018-04-24T06:57:44.584Z,101210.63
2018-04-24T07:00:12.977Z,101216.98
2018-04-24T07:02:41.351Z,101209.75
2018-04-24T07:05:10.344Z,101208.64
2018-04-24T07:07:38.716Z,101214.09
2018-04-24T07:10:07.122Z,101212.50
2018-04-24T07:12:35.526Z,101210.37
2018-04-24T07:15:04.692Z,101216.50
2018-04-24T07:17:33.105Z,101214.23
2018-04-24T07:20:02.270Z,101209.38
2018-04-24T07:22:30.673Z,101213.91
2018-04-24T07:24:59.110Z,101210.93
2018-04-24T07:27:27.510Z,101204.45
2018-04-24T07:29:55.902Z,101218.05
2018-04-24T07:32:24.272Z,101208.59
2018-04-24T07:34:52.671Z,101204.33
2018-04-24T07:37:21.153Z,101197.64
2018-04-24T07:39:49.533Z,101204.18
2018-04-24T07:42:17.916Z,101208.53
2018-04-24T07:44:46.306Z,101205.92
2018-04-24T07:47:14.690Z,101202.05
2018-04-24T07:49:43.077Z,101212.06
2018-04-24T07:52:11.453Z,101206.99
2018-04-24T07:54:39.843Z,101202.17
2018-04-24T07:57:08.285Z,101214.25
2018-04-24T07:59:36.660Z,101213.94
2018-04-24T08:02:05.828Z,101205.38
2018-04-24T08:04:34.199Z,101214.95
2018-04-24T08:07:02.615Z,101216.37
2018-04-24T08:09:31.763Z,101217.17
2018-04-24T08:12:00.205Z,101213.67
2018-04-24T08:14:29.385Z,101214.25
2018-04-24T08:16:57.787Z,101215.19
2018-04-24T08:19:26.956Z,101217.22
2018-04-24T08:21:55.349Z,101212.73
2018-04-24T08:24:23.754Z,101227.66
2018-04-24T08:26:52.927Z,101220.33
2018-04-24T08:29:21.363Z,101224.79
2018-04-24T08:31:49.849Z,101223.08
2018-04-24T08:34:18.234Z,101215.04
2018-04-24T08:36:46.642Z,101215.94
2018-04-24T08:39:15.026Z,101215.09
2018-04-24T08:41:43.422Z,101210.72
2018-04-24T08:44:11.837Z,101214.28
2018-04-24T08:46:40.998Z,101212.68
2018-04-24T08:49:10.162Z,101211.49
2018-04-24T08:51:38.541Z,101225.05
2018-04-24T08:54:06.921Z,101222.50
2018-04-24T08:56:35.354Z,101216.21
2018-04-24T08:59:03.898Z,101220.78
2018-04-24T09:01:32.318Z,101223.41
2018-04-24T09:04:00.719Z,101229.89
2018-04-24T09:06:29.133Z,101231.20
2018-04-24T09:08:58.287Z,101238.64
2018-04-24T09:11:26.697Z,101238.98
2018-04-24T09:13:55.086Z,101252.27
2018-04-24T09:16:36.619Z,101243.83
2018-04-24T09:19:05.022Z,101245.88
2018-04-24T09:21:33.421Z,101238.05
2018-04-24T09:24:01.825Z,101237.06
2018-04-24T09:26:30.989Z,101241.63
2018-04-24T09:29:00.171Z,101239.14
2018-04-24T09:31:33.961Z,101238.00
2018-04-24T09:34:02.358Z,101237.00
2018-04-24T09:36:30.745Z,101238.92
2018-04-24T09:38:59.161Z,101244.84
2018-04-24T09:41:27.527Z,101246.05
2018-04-24T09:43:55.977Z,101249.21
2018-04-24T09:46:24.301Z,101246.91
2018-04-24T09:48:52.789Z,101248.58
2018-04-24T09:51:21.154Z,101247.91
2018-04-24T09:53:49.518Z,101250.55
2018-04-24T09:56:17.927Z,101251.40
2018-04-24T09:58:46.333Z,101242.57
2018-04-24T10:01:14.742Z,101238.31
2018-04-24T10:03:43.938Z,101231.88
2018-04-24T10:06:13.078Z,101230.31
2018-04-24T10:08:41.474Z,101237.26
2018-04-24T10:11:09.926Z,101237.96
2018-04-24T10:13:38.324Z,101232.48
2018-04-24T10:16:06.799Z,101234.52
2018-04-24T10:18:35.176Z,101231.64
2018-04-24T10:21:03.601Z,101230.33
2018-04-24T10:23:31.982Z,101234.67
2018-04-24T10:26:00.397Z,101233.36
2018-04-24T10:28:29.552Z,101229.46
2018-04-24T10:30:57.973Z,101225.91
2018-04-24T10:33:26.354Z,101223.30
2018-04-24T10:35:54.788Z,101220.29
2018-04-24T10:38:23.171Z,101221.16
2018-04-24T10:40:51.553Z,101234.23
2018-04-24T10:43:19.966Z,101228.53
2018-04-24T10:45:48.365Z,101223.63
2018-04-24T10:48:16.736Z,101212.84
2018-04-24T10:50:45.185Z,101202.77
2018-04-24T10:53:13.556Z,101190.92
2018-04-24T10:55:41.978Z,101188.38
2018-04-24T10:58:10.388Z,101185.73
2018-04-24T11:00:38.799Z,101181.38
2018-04-24T11:03:07.169Z,101178.15
2018-04-24T11:05:35.534Z,101174.91
2018-04-24T11:08:03.936Z,101172.69
2018-04-24T11:10:32.324Z,101168.77
2018-04-24T11:13:01.513Z,101168.01
2018-04-24T11:15:29.984Z,101165.75
2018-04-24T11:17:58.353Z,101168.44
2018-04-24T11:20:26.689Z,101159.20
2018-04-24T11:22:55.073Z,101152.23
2018-04-24T11:25:23.468Z,101148.39
2018-04-24T11:27:51.836Z,101141.72
2018-04-24T11:30:21.071Z,101140.71
2018-04-24T11:32:49.389Z,101137.64
2018-04-24T11:35:17.785Z,101134.33
2018-04-24T11:37:46.930Z,101139.66
2018-04-24T11:40:15.331Z,101123.81
2018-04-24T11:42:43.690Z,101135.80
2018-04-24T11:45:12.069Z,101134.00
2018-04-24T11:47:40.457Z,101129.88
2018-04-24T11:50:08.858Z,101129.75
2018-04-24T11:52:37.332Z,101129.61
2018-04-24T11:55:05.763Z,101132.13
2018-04-24T11:57:34.163Z,101132.05
2018-04-24T12:00:03.295Z,101132.50
2018-04-24T12:02:31.787Z,101132.20
2018-04-24T12:05:00.102Z,101126.42
2018-04-24T12:07:28.448Z,101127.33
2018-04-24T12:09:56.928Z,101134.53
2018-04-24T12:12:26.037Z,101141.59
2018-04-24T12:14:54.541Z,101149.86
2018-04-24T12:17:22.943Z,101145.03
2018-04-24T12:19:51.319Z,101141.30
2018-04-24T12:22:19.741Z,101130.52
2018-04-24T12:24:48.927Z,101133.89
2018-04-24T12:27:17.289Z,101138.78
2018-04-24T12:29:45.692Z,101129.56
2018-04-24T12:32:14.882Z,101137.97
2018-04-24T12:34:43.221Z,101131.52
2018-04-24T12:37:11.591Z,101120.80
2018-04-24T12:39:40.096Z,101114.83
2018-04-24T12:42:08.506Z,101114.51
2018-04-24T12:44:36.875Z,101116.86
2018-04-24T12:47:05.273Z,101107.34
2018-04-24T12:49:33.665Z,101104.97
2018-04-24T12:52:02.083Z,101104.85
2018-04-24T12:54:31.248Z,101097.06
2018-04-24T12:56:59.645Z,101092.80
2018-04-24T12:59:28.789Z,101097.06
2018-04-24T13:01:57.187Z,101104.31
2018-04-24T13:04:25.605Z,101103.49
2018-04-24T13:06:54.000Z,101108.71
2018-04-24T13:09:23.182Z,101109.74
2018-04-24T13:11:51.564Z,101112.57
2018-04-24T13:14:19.941Z,101115.39
2018-04-24T13:16:48.343Z,101116.52
2018-04-24T13:19:16.727Z,101105.98
2018-04-24T13:21:45.090Z,101104.38
2018-04-24T13:24:13.590Z,101108.44
2018-04-24T13:26:42.012Z,101096.56
2018-04-24T13:29:10.409Z,101100.12
2018-04-24T13:31:38.799Z,101081.34
2018-04-24T13:34:07.164Z,101072.96
2018-04-24T13:36:35.586Z,101061.67
2018-04-24T13:39:04.007Z,101071.56
2018-04-24T13:41:33.172Z,101057.06
2018-04-24T13:44:01.561Z,101051.38
2018-04-24T13:46:29.978Z,101049.12
2018-04-24T13:48:59.195Z,101053.03
2018-04-24T13:51:27.533Z,101051.83
2018-04-24T13:53:55.929Z,101047.33
2018-04-24T13:56:24.379Z,101041.64
2018-04-24T13:58:52.786Z,101041.19
2018-04-24T14:01:21.178Z,101038.91
2018-04-24T14:03:49.602Z,101034.17
2018-04-24T14:06:18.007Z,101030.53
2018-04-24T14:08:46.566Z,101028.16
2018-04-24T14:11:14.958Z,101025.64
2018-04-24T14:13:43.399Z,101019.61
2018-04-24T14:16:11.774Z,101010.39
2018-04-24T14:18:40.181Z,101007.72
2018-04-24T14:21:09.356Z,101016.00
2018-04-24T14:23:37.730Z,101011.01
2018-04-24T14:26:06.196Z,101011.10
2018-04-24T14:28:34.613Z,101008.62
2018-04-24T14:31:02.988Z,101005.30
2018-04-24T14:33:32.118Z,100996.95
2018-04-24T14:36:01.346Z,100996.29
2018-04-24T14:38:29.727Z,100995.24
2018-04-24T14:40:58.126Z,101000.01
2018-04-24T14:43:26.516Z,100985.83
2018-04-24T14:45:54.922Z,100995.16
2018-04-24T14:48:23.322Z,100989.23
2018-04-24T14:50:51.693Z,100980.95
2018-04-24T14:53:20.089Z,100981.50
2018-04-24T14:55:48.462Z,100977.08
2018-04-24T14:58:16.866Z,100980.43
2018-04-24T15:00:45.227Z,100971.48
2018-04-24T15:03:13.762Z,100963.38
2018-04-24T15:05:42.254Z,100966.39
2018-04-24T15:08:10.646Z,100959.89
2018-04-24T15:10:39.012Z,100958.69
2018-04-24T15:13:07.385Z,100958.96
2018-04-24T15:15:36.529Z,100952.61
2018-04-24T15:18:04.925Z,100954.53
2018-04-24T15:20:33.512Z,100943.03
2018-04-24T15:23:02.661Z,100941.36
2018-04-24T15:25:31.061Z,100936.98
2018-04-24T15:27:59.438Z,100931.02
2018-04-24T15:30:27.801Z,100926.48
2018-04-24T15:32:57.020Z,100925.83
2018-04-24T15:35:25.391Z,100926.70
2018-04-24T15:37:54.560Z,100913.64
2018-04-24T15:40:22.936Z,100912.48
2018-04-24T15:42:51.327Z,100903.70
2018-04-24T15:45:19.705Z,100894.14
2018-04-24T15:47:48.092Z,100888.49
2018-04-24T15:50:16.498Z,100892.78
2018-04-24T15:52:45.636Z,100887.10
2018-04-24T15:55:14.007Z,100883.53
2018-04-24T15:57:42.391Z,100886.73
2018-04-24T16:00:10.793Z,100881.00
2018-04-24T16:02:39.170Z,100881.89
2018-04-24T16:05:07.606Z,100883.17
2018-04-24T16:07:36.738Z,100873.55
2018-04-24T16:10:05.114Z,100874.84
2018-04-24T16:12:33.559Z,100874.88
2018-04-24T16:15:01.997Z,100877.16
2018-04-24T16:17:30.397Z,100882.36
2018-04-24T16:19:58.774Z,100879.23
2018-04-24T16:22:27.141Z,100884.05
2018-04-24T16:24:55.547Z,100885.05
2018-04-24T16:27:23.934Z,100883.20
2018-04-24T16:29:52.286Z,100878.43
2018-04-24T16:32:20.658Z,100871.34
2018-04-24T16:34:49.050Z,100873.70
2018-04-24T16:37:17.444Z,100871.71
2018-04-24T16:39:45.872Z,100875.35
2018-04-24T16:42:14.372Z,100871.33
2018-04-24T16:44:43.527Z,100870.00
2018-04-24T16:47:11.917Z,100862.60
2018-04-24T16:49:40.266Z,100865.81
2018-04-24T16:52:08.659Z,100860.85
2018-04-24T16:54:37.819Z,100864.66
2018-04-24T16:57:06.221Z,100857.03
2018-04-24T16:59:35.394Z,100847.92
2018-04-24T17:02:03.918Z,100844.54
2018-04-24T17:04:32.414Z,100839.24
2018-04-24T17:07:00.800Z,100823.81
2018-04-24T17:09:29.210Z,100823.36
2018-04-24T17:11:57.656Z,100826.44
2018-04-24T17:14:26.016Z,100837.68
2018-04-24T17:16:55.245Z,100830.05
2018-04-24T17:19:23.624Z,100835.84
2018-04-24T17:21:52.086Z,100837.41
2018-04-24T17:24:21.280Z,100832.53
2018-04-24T17:26:50.581Z,100829.95
2018-04-24T17:29:18.965Z,100830.63
2018-04-24T17:31:48.202Z,100829.01
2018-04-24T17:34:16.604Z,100831.61
2018-04-24T17:36:45.017Z,100828.05
2018-04-24T17:39:13.437Z,100828.27
2018-04-24T17:41:42.622Z,100823.56
2018-04-24T17:44:11.009Z,100822.30
2018-04-24T17:46:40.407Z,100814.48
2018-04-24T17:49:08.865Z,100819.22
2018-04-24T17:51:37.257Z,100815.36
2018-04-24T17:54:05.662Z,100809.56
2018-04-24T17:56:34.069Z,100804.73
2018-04-24T17:59:03.223Z,100806.13
2018-04-24T18:01:31.622Z,100804.11
2018-04-24T18:04:00.130Z,100796.39
2018-04-24T18:06:29.294Z,100792.89
2018-04-24T18:08:57.711Z,100791.82
2018-04-24T18:11:26.899Z,100793.72
2018-04-24T18:13:55.280Z,100791.61
2018-04-24T18:16:23.669Z,100797.70
2018-04-24T18:18:52.066Z,100796.02
2018-04-24T18:21:21.262Z,100806.09
2018-04-24T18:23:50.432Z,100802.63
2018-04-24T18:26:19.639Z,100800.05
2018-04-24T18:28:48.010Z,100799.20
2018-04-24T18:31:16.417Z,100790.46
2018-04-24T18:33:44.887Z,100788.28
2018-04-24T18:36:13.280Z,100790.47
2018-04-24T18:38:41.668Z,100788.28
2018-04-24T18:41:10.074Z,100793.12
2018-04-24T18:43:39.233Z,100789.19
2018-04-24T18:46:07.641Z,100788.78
2018-04-24T18:48:36.039Z,100781.37
2018-04-24T18:51:05.262Z,100779.20
2018-04-24T18:53:33.671Z,100777.45
2018-04-24T18:56:02.127Z,100774.39
2018-04-24T18:58:30.529Z,100779.64
2018-04-24T19:00:58.916Z,100779.63
2018-04-24T19:03:27.342Z,100789.64
2018-04-24T19:05:55.714Z,100783.51
2018-04-24T19:08:24.143Z,100782.66
2018-04-24T19:10:52.536Z,100780.03
2018-04-24T19:13:20.950Z,100775.70
2018-04-24T19:15:49.320Z,100774.41
2018-04-24T19:18:17.697Z,100772.66
2018-04-24T19:20:46.174Z,100773.53
2018-04-24T19:23:14.594Z,100763.95
2018-04-24T19:25:43.754Z,100766.13
2018-04-24T19:28:12.922Z,100775.25
2018-04-24T19:30:42.081Z,100776.13
2018-04-24T19:33:10.518Z,100771.78
2018-04-24T19:35:39.026Z,100770.07
2018-04-24T19:38:07.506Z,100763.53
2018-04-24T19:40:41.531Z,100762.23
2018-04-24T19:43:10.027Z,100764.41
2018-04-24T19:45:38.423Z,100766.16
2018-04-24T19:48:08.374Z,100767.02
2018-04-24T19:50:37.522Z,100763.99
2018-04-24T19:53:05.879Z,100770.52
2018-04-24T19:55:34.270Z,100772.27
2018-04-24T19:58:02.862Z,100765.27
2018-04-24T20:00:31.239Z,100763.09
2018-04-24T20:02:59.641Z,100759.61
2018-04-24T20:05:28.015Z,100757.00
2018-04-24T20:07:56.419Z,100750.89
2018-04-24T20:10:24.802Z,100750.02
2018-04-24T20:12:53.282Z,100750.44
2018-04-24T20:15:21.704Z,100751.30
2018-04-24T20:17:50.109Z,100748.25
2018-04-24T20:20:19.279Z,100739.09
2018-04-24T20:22:47.697Z,100742.14
2018-04-24T20:25:16.862Z,100735.59
2018-04-24T20:27:45.276Z,100731.23
2018-04-24T20:30:14.454Z,100729.06
2018-04-24T20:32:42.822Z,100728.17
2018-04-24T20:35:11.260Z,100728.20
2018-04-24T20:37:39.646Z,100729.95
2018-04-24T20:40:08.023Z,100726.45
2018-04-24T20:42:36.413Z,100725.17
2018-04-24T20:45:04.812Z,100717.33
2018-04-24T20:47:33.193Z,100711.21
2018-04-24T20:50:01.617Z,100712.06
2018-04-24T20:52:30.040Z,100705.52
2018-04-24T20:54:58.439Z,100702.03
2018-04-24T20:57:26.855Z,100701.59
2018-04-24T20:59:55.247Z,100701.14
2018-04-24T21:02:23.641Z,100698.98
2018-04-24T21:04:52.061Z,100692.01
2018-04-24T21:07:20.580Z,100685.93
2018-04-24T21:09:48.960Z,100685.92
2018-04-24T21:12:17.371Z,100684.63
2018-04-24T21:14:45.754Z,100685.06
2018-04-24T21:17:14.164Z,100679.82
2018-04-24T21:19:43.321Z,100670.72
2018-04-24T21:22:11.766Z,100672.02
2018-04-24T21:24:40.240Z,100667.23
2018-04-24T21:27:08.646Z,100662.88
2018-04-24T21:29:37.027Z,100658.95
2018-04-24T21:32:05.410Z,100655.43
2018-04-24T21:34:33.869Z,100655.38
2018-04-24T21:37:03.012Z,100647.52
2018-04-24T21:39:31.422Z,100646.64
2018-04-24T21:41:59.866Z,100650.56
2018-04-24T21:44:28.274Z,100635.71
2018-04-24T21:46:56.665Z,100633.98
2018-04-24T21:49:25.092Z,100634.84
2018-04-24T21:51:54.310Z,100630.05
2018-04-24T21:54:22.748Z,100618.73
2018-04-24T21:56:51.135Z,100614.31
2018-04-24T21:59:19.555Z,100617.38
2018-04-24T22:01:48.018Z,100612.10
2018-04-24T22:04:16.386Z,100599.40
2018-04-24T22:06:44.793Z,100581.44
2018-04-24T22:09:13.958Z,100586.18
2018-04-24T22:11:42.345Z,100583.20
2018-04-24T22:14:10.743Z,100577.17
2018-04-24T22:16:39.174Z,100575.05
2018-04-24T22:19:07.583Z,100572.54
2018-04-24T22:21:36.019Z,100569.08
2018-04-24T22:24:04.393Z,100568.73
2018-04-24T22:26:32.795Z,100567.42
2018-04-24T22:29:01.191Z,100571.73
2018-04-24T22:31:29.599Z,100565.95
2018-04-24T22:33:58.252Z,100560.62
2018-04-24T22:36:26.728Z,100562.18
2018-04-24T22:38:55.158Z,100556.06
2018-04-24T22:41:23.565Z,100547.78
2018-04-24T22:43:53.041Z,100543.66
2018-04-24T22:46:21.443Z,100536.20
2018-04-24T22:48:49.846Z,100537.02
2018-04-24T22:51:18.991Z,100529.59
2018-04-24T22:53:47.405Z,100532.25
2018-04-24T22:56:15.794Z,100524.73
2018-04-24T22:58:44.206Z,100521.39
2018-04-24T23:01:13.371Z,100515.28
2018-04-24T23:03:41.799Z,100516.11
2018-04-24T23:06:10.218Z,100520.86
2018-04-24T23:08:38.613Z,100513.50
2018-04-24T23:11:24.791Z,100509.80
2018-04-24T23:14:10.840Z,100505.94
2018-04-24T23:16:57.775Z,100502.39
2018-04-24T23:19:43.829Z,100504.14
2018-04-24T23:22:34.490Z,100501.43
2018-04-24T23:25:02.858Z,100500.72
2018-04-24T23:27:31.252Z,100498.92
2018-04-24T23:29:59.643Z,100507.38
2018-04-24T23:32:28.030Z,100500.33
2018-04-24T23:34:56.408Z,100499.13
2018-04-24T23:37:24.817Z,100492.08
2018-04-24T23:39:53.960Z,100485.86
2018-04-24T23:42:22.332Z,100475.05
2018-04-24T23:44:50.687Z,100471.17
2018-04-24T23:47:19.826Z,100467.17
2018-04-24T23:49:48.214Z,100459.91
2018-04-24T23:52:16.671Z,100462.54
2018-04-24T23:54:45.066Z,100457.75
2018-04-24T23:57:13.435Z,100464.63
2018-04-24T23:59:41.859Z,100462.06
